Time;durP1;ratioP1;P1;durP2;ratioP2;P2;SDS_P1;SDS_P2;PMS_P1;PMS_P2;Temp;Humidity;BMP_temperature;BMP_pressure;BME280_temperature;BME280_humidity;BME280_pressure;Samples;Min_cycle;Max_cycle;Signal;HPM_P1;HPM_P2
2023/12/10 00:02:14;;;;;;;1999.90;999.90;;;;;;;13.61;66.01;99639.47;10420442;28;20137;-68
2023/12/10 00:07:17;;;;;;;1999.90;999.90;;;;;;;14.18;64.76;99657.25;10419537;28;20088;-68
2023/12/10 00:12:19;;;;;;;1999.90;999.90;;;;;;;13.97;64.91;99644.22;10419826;28;20056;-67
2023/12/10 00:17:22;;;;;;;1999.90;999.90;;;;;;;14.07;64.74;99635.38;10418635;28;20087;-68
2023/12/10 00:22:25;;;;;;;1999.90;999.90;;;;;;;13.65;66.34;99643.50;10418727;28;20054;-68
2023/12/10 00:27:28;;;;;;;1999.90;999.90;;;;;;;13.79;65.71;99655.44;10419544;28;20062;-68
2023/12/10 00:32:31;;;;;;;1999.90;999.90;;;;;;;13.87;66.34;99647.69;10419356;28;20483;-68
2023/12/10 00:37:33;;;;;;;1999.90;999.90;;;;;;;14.05;65.40;99666.22;10418099;28;20052;-68
2023/12/10 00:42:35;;;;;;;1999.90;999.90;;;;;;;13.44;68.01;99664.63;10419045;28;20053;-68
2023/12/10 00:47:38;;;;;;;1999.90;999.90;;;;;;;13.65;67.56;99680.34;10418925;28;20045;-68
2023/12/10 00:52:40;;;;;;;1999.90;999.90;;;;;;;13.56;69.00;99666.16;10418691;28;20111;-68
2023/12/10 00:57:43;;;;;;;1999.90;999.90;;;;;;;13.70;68.14;99682.53;10418529;28;20053;-68
2023/12/10 01:02:46;;;;;;;1999.90;999.90;;;;;;;13.85;68.93;99688.25;10418155;28;20107;-68
2023/12/10 01:07:50;;;;;;;1999.90;999.90;;;;;;;13.80;69.03;99698.34;10400953;28;20132;-68
2023/12/10 01:12:53;;;;;;;1999.90;999.90;;;;;;;13.43;69.89;99707.69;10417861;28;20124;-68
2023/12/10 01:18:02;;;;;;;1999.90;999.90;;;;;;;13.41;70.81;99717.47;10417832;28;20064;-68
2023/12/10 01:23:05;;;;;;;1999.90;999.90;;;;;;;13.55;70.22;99714.50;10417330;28;20111;-67
2023/12/10 01:28:12;;;;;;;1999.90;999.90;;;;;;;13.58;71.04;99705.47;10415215;28;20053;-67
2023/12/10 01:33:14;;;;;;;1999.90;999.90;;;;;;;13.91;69.62;99704.31;10417077;28;20052;-67
2023/12/10 01:38:17;;;;;;;1999.90;999.90;;;;;;;13.13;69.82;99722.44;10416730;28;20588;-67
2023/12/10 01:43:20;;;;;;;1999.90;999.90;;;;;;;13.12;70.36;99720.78;10416570;28;20473;-67
2023/12/10 01:48:23;;;;;;;1999.90;999.90;;;;;;;13.16;69.06;99732.72;10415270;28;20455;-67
2023/12/10 01:53:26;;;;;;;1999.90;999.90;;;;;;;13.08;72.20;99731.66;10415158;28;20056;-67
2023/12/10 01:58:29;;;;;;;1999.90;999.90;;;;;;;13.78;70.39;99740.56;10414975;28;20124;-67
2023/12/10 02:03:33;;;;;;;1999.90;999.90;;;;;;;13.37;71.91;99755.53;10415777;28;20500;-68
2023/12/10 02:08:35;;;;;;;1999.90;999.90;;;;;;;13.13;73.27;99740.84;10414608;28;20053;-67
2023/12/10 02:13:38;;;;;;;1999.90;999.90;;;;;;;12.78;72.71;99749.91;10415703;28;20134;-66
2023/12/10 02:18:41;;;;;;;1999.90;999.90;;;;;;;13.04;73.37;99757.38;10415610;28;20053;-66
2023/12/10 02:24:04;;;;;;;1999.90;999.90;;;;;;;13.32;74.09;99747.19;10414130;28;20431;-67
2023/12/10 02:29:07;;;;;;;1999.90;999.90;;;;;;;12.34;75.82;99764.03;10397797;28;20079;-65
2023/12/10 02:34:09;;;;;;;1999.90;999.90;;;;;;;13.30;72.40;99763.06;10415186;28;20074;-66
2023/12/10 02:39:12;;;;;;;1999.90;999.90;;;;;;;12.62;75.79;99788.88;10414867;28;20046;-66
2023/12/10 02:44:14;;;;;;;1999.90;999.90;;;;;;;13.27;75.48;99776.47;10414862;28;20056;-66
2023/12/10 02:49:17;;;;;;;1999.90;999.90;;;;;;;12.30;76.48;99794.94;10415139;28;20052;-67
2023/12/10 02:54:19;;;;;;;1999.90;999.90;;;;;;;13.08;76.93;99792.97;10413506;28;20477;-66
2023/12/10 02:59:22;;;;;;;1999.90;999.90;;;;;;;12.51;76.60;99802.91;10414700;28;20128;-66
2023/12/10 03:04:24;;;;;;;1999.90;999.90;;;;;;;12.27;77.75;99808.31;10414532;28;20413;-67
2023/12/10 03:09:26;;;;;;;1999.90;999.90;;;;;;;12.37;76.75;99803.16;10414349;28;20128;-67
2023/12/10 03:14:29;;;;;;;1999.90;999.90;;;;;;;12.62;75.77;99808.13;10414560;28;20072;-66
2023/12/10 03:19:31;;;;;;;1999.90;999.90;;;;;;;12.62;76.03;99800.25;10414284;28;20056;-67
2023/12/10 03:24:34;;;;;;;1999.90;999.90;;;;;;;12.96;75.74;99815.84;10414121;28;20103;-66
2023/12/10 03:29:36;;;;;;;1999.90;999.90;;;;;;;13.20;74.59;99812.94;10414269;28;20053;-67
2023/12/10 03:34:38;;;;;;;1999.90;999.90;;;;;;;12.20;76.39;99818.47;10412783;28;20050;-66
2023/12/10 03:39:41;;;;;;;1999.90;999.90;;;;;;;12.51;76.07;99821.28;10414133;28;20053;-66
2023/12/10 03:44:43;;;;;;;1999.90;999.90;;;;;;;12.15;77.46;99807.50;10413782;28;20104;-66
2023/12/10 03:49:46;;;;;;;1999.90;999.90;;;;;;;12.25;74.25;99820.75;10417095;28;20053;-67
2023/12/10 03:54:48;;;;;;;1999.90;999.90;;;;;;;12.80;73.99;99807.56;10420822;28;20045;-67
2023/12/10 03:59:50;;;;;;;1999.90;999.90;;;;;;;12.09;75.79;99815.88;10420687;28;20076;-67
2023/12/10 04:04:53;;;;;;;1999.90;999.90;;;;;;;13.10;73.07;99822.56;10420443;28;20041;-67
2023/12/10 04:09:57;;;;;;;1999.90;999.90;;;;;;;12.55;73.31;99832.34;10420452;28;20053;-67
2023/12/10 04:14:59;;;;;;;1999.90;999.90;;;;;;;12.60;73.05;99844.16;10420406;28;20049;-67
2023/12/10 04:20:02;;;;;;;1999.90;999.90;;;;;;;12.86;72.14;99833.31;10420111;28;20045;-67
2023/12/10 04:25:05;;;;;;;1999.90;999.90;;;;;;;13.32;70.29;99834.78;10419694;28;20508;-67
2023/12/10 04:30:08;;;;;;;1999.90;999.90;;;;;;;12.49;68.88;99851.22;10419689;28;20049;-67
2023/12/10 04:35:10;;;;;;;1999.90;999.90;;;;;;;12.98;68.66;99865.63;10418217;28;20053;-66
2023/12/10 04:40:13;;;;;;;1999.90;999.90;;;;;;;12.60;68.98;99859.91;10419199;28;20053;-67
2023/12/10 04:45:16;;;;;;;1999.90;999.90;;;;;;;12.80;69.81;99866.16;10417699;28;20511;-67
2023/12/10 04:50:19;;;;;;;1999.90;999.90;;;;;;;12.54;72.27;99870.91;10417671;28;20127;-68
2023/12/10 04:55:22;;;;;;;1999.90;999.90;;;;;;;12.33;71.84;99867.38;10418480;28;20045;-68
2023/12/10 05:00:24;;;;;;;1999.90;999.90;;;;;;;12.96;71.37;99905.16;10418091;28;20052;-68
2023/12/10 05:05:26;;;;;;;1999.90;999.90;;;;;;;12.96;71.04;99899.06;10417165;28;20115;-67
2023/12/10 05:10:29;;;;;;;1999.90;999.90;;;;;;;12.43;72.85;99898.00;10430068;23;20115;-65
2023/12/10 05:15:34;;;;;;;1999.90;999.90;;;;;;;13.02;69.73;99906.44;10416967;28;20055;-65
2023/12/10 05:20:37;;;;;;;1999.90;999.90;;;;;;;13.19;69.02;99918.19;10417679;28;20057;-65
2023/12/10 05:25:39;;;;;;;1999.90;999.90;;;;;;;12.63;69.44;99927.09;10417248;28;20440;-65
2023/12/10 05:30:41;;;;;;;1999.90;999.90;;;;;;;12.62;70.12;99928.06;10417379;28;20049;-66
2023/12/10 05:35:44;;;;;;;1999.90;999.90;;;;;;;12.98;68.38;99940.03;10416924;28;20061;-65
2023/12/10 05:40:46;;;;;;;1999.90;999.90;;;;;;;12.98;66.91;99960.22;10416894;28;20128;-65
2023/12/10 05:45:48;;;;;;;1999.90;999.90;;;;;;;13.12;66.33;99956.47;10416483;28;20472;-65
2023/12/10 05:50:51;;;;;;;1999.90;999.90;;;;;;;13.15;66.29;99961.47;10415481;28;20056;-65
2023/12/10 05:55:53;;;;;;;1999.90;999.90;;;;;;;13.35;66.12;99976.47;10416241;28;20394;-64
2023/12/10 06:00:56;;;;;;;1999.90;999.90;;;;;;;13.32;64.38;99981.16;10416091;28;20061;-65
2023/12/10 06:05:58;;;;;;;1999.90;999.90;;;;;;;13.18;64.79;99985.72;10415816;28;20133;-65
2023/12/10 06:11:01;;;;;;;1999.90;999.90;;;;;;;12.91;65.02;100009.81;10415278;28;20064;-65
2023/12/10 06:16:03;;;;;;;1999.90;999.90;;;;;;;13.15;64.84;100040.31;10415858;28;20046;-65
2023/12/10 06:21:06;;;;;;;1999.90;999.90;;;;;;;13.03;66.43;100002.72;10414336;28;20057;-66
2023/12/10 06:26:08;;;;;;;1999.90;999.90;;;;;;;12.95;67.06;100060.31;10415268;28;20068;-65
2023/12/10 06:31:11;;;;;;;1999.90;999.90;;;;;;;12.89;65.32;100069.50;10415194;28;20625;-63
2023/12/10 06:36:13;;;;;;;1999.90;999.90;;;;;;;13.46;64.37;100065.00;10414043;28;20252;-65
2023/12/10 06:41:15;;;;;;;1999.90;999.90;;;;;;;13.24;64.91;100088.69;10413866;28;20054;-64
2023/12/10 06:46:18;;;;;;;1999.90;999.90;;;;;;;13.62;64.41;100098.78;10414829;28;20133;-65
2023/12/10 06:51:21;;;;;;;1999.90;999.90;;;;;;;13.27;65.99;100120.00;10415111;28;20085;-65
2023/12/10 06:56:23;;;;;;;1999.90;999.90;;;;;;;13.68;62.94;100140.34;10414862;28;20128;-65
2023/12/10 07:01:26;;;;;;;1999.90;999.90;;;;;;;13.59;64.47;100138.47;10414715;28;20053;-65
2023/12/10 07:06:33;;;;;;;1999.90;999.90;;;;;;;13.13;66.03;100137.69;10413437;28;20053;-65
2023/12/10 07:11:35;;;;;;;1999.90;999.90;;;;;;;12.72;64.38;100168.00;10413403;28;20123;-62
2023/12/10 07:16:37;;;;;;;1999.90;999.90;;;;;;;13.10;63.57;100145.81;10414617;28;20052;-65
2023/12/10 07:21:40;;;;;;;1999.90;999.90;;;;;;;13.20;63.91;100159.06;10414450;28;20045;-65
2023/12/10 07:26:43;;;;;;;1999.90;999.90;;;;;;;12.95;65.20;100189.06;10420996;28;20045;-65
2023/12/10 07:31:45;;;;;;;1999.90;999.90;;;;;;;13.05;64.78;100183.94;10422081;28;20128;-66
2023/12/10 07:36:47;;;;;;;1999.90;999.90;;;;;;;13.20;63.92;100206.38;10421626;28;20404;-65
2023/12/10 07:41:50;;;;;;;1999.90;999.90;;;;;;;13.81;62.94;100213.88;10421650;28;20060;-65
2023/12/10 07:46:52;;;;;;;1999.90;999.90;;;;;;;13.20;64.05;100233.50;10421286;28;20050;-65
2023/12/10 07:51:55;;;;;;;1999.90;999.90;;;;;;;13.35;63.52;100246.47;10420112;28;20132;-65
2023/12/10 07:56:57;;;;;;;1999.90;999.90;;;;;;;13.04;64.37;100238.25;10420875;28;20050;-65
2023/12/10 08:02:00;;;;;;;1999.90;999.90;;;;;;;13.07;64.11;100255.59;10420959;28;20053;-65
2023/12/10 08:07:03;;;;;;;1999.90;999.90;;;;;;;13.80;62.47;100267.47;10420658;28;20172;-65
2023/12/10 08:12:05;;;;;;;1999.90;999.90;;;;;;;12.87;64.59;100257.09;10419254;28;20046;-64
2023/12/10 08:17:08;;;;;;;1999.90;999.90;;;;;;;13.80;62.11;100264.84;10420095;28;20046;-65
2023/12/10 08:22:13;;;;;;;1999.90;999.90;;;;;;;13.62;63.03;100296.06;10418728;28;20049;-66
2023/12/10 08:27:16;;;;;;;1999.90;999.90;;;;;;;12.96;62.57;100322.09;10419957;28;20054;-64
2023/12/10 08:32:18;;;;;;;1999.90;999.90;;;;;;;13.51;64.01;100311.81;10418460;28;20060;-65
2023/12/10 08:37:20;;;;;;;1999.90;999.90;;;;;;;13.13;63.61;100320.81;10417553;28;20476;-66
2023/12/10 08:42:24;;;;;;;1999.90;999.90;;;;;;;13.32;62.53;100313.25;10418171;28;20053;-66
2023/12/10 08:47:26;;;;;;;1999.90;999.90;;;;;;;13.62;63.89;100321.53;10418927;28;20056;-65
2023/12/10 08:52:29;;;;;;;1999.90;999.90;;;;;;;13.18;63.65;100352.88;10417837;28;20064;-66
2023/12/10 08:57:32;;;;;;;1999.90;999.90;;;;;;;13.50;62.98;100350.44;10401349;28;20053;-65
2023/12/10 09:02:34;;;;;;;1999.90;999.90;;;;;;;13.69;62.97;100355.13;10418312;28;20132;-66
2023/12/10 09:07:37;;;;;;;1999.90;999.90;;;;;;;14.12;62.70;100357.03;10416834;28;20088;-66
2023/12/10 09:12:39;;;;;;;1999.90;999.90;;;;;;;14.13;61.53;100368.38;10417908;28;20045;-66
2023/12/10 09:17:42;;;;;;;1999.90;999.90;;;;;;;13.54;64.24;100386.06;10416751;28;20050;-66
2023/12/10 09:22:44;;;;;;;1999.90;999.90;;;;;;;14.19;62.19;100409.16;10417569;28;20111;-66
2023/12/10 09:27:46;;;;;;;1999.90;999.90;;;;;;;13.14;64.78;100417.13;10417583;28;20148;-65
2023/12/10 09:32:49;;;;;;;1999.90;999.90;;;;;;;13.81;61.80;100426.16;10417292;28;20053;-66
2023/12/10 09:37:51;;;;;;;1999.90;999.90;;;;;;;13.63;62.56;100434.50;10416942;28;20053;-66
2023/12/10 09:42:54;;;;;;;1999.90;999.90;;;;;;;13.80;62.51;100449.03;10415457;28;20497;-66
2023/12/10 09:47:56;;;;;;;1999.90;999.90;;;;;;;13.60;63.06;100437.38;10415646;28;20401;-66
2023/12/10 09:52:59;;;;;;;1999.90;999.90;;;;;;;13.78;62.19;100437.75;10415446;28;20132;-66
2023/12/10 09:58:02;;;;;;;1999.90;999.90;;;;;;;14.33;60.64;100442.34;10415087;28;20049;-66
2023/12/10 10:03:05;;;;;;;1999.90;999.90;;;;;;;14.03;62.57;100434.06;10416240;28;20046;-66
2023/12/10 10:08:08;;;;;;;1999.90;999.90;;;;;;;13.94;61.55;100432.16;10415712;28;20513;-67
2023/12/10 10:13:10;;;;;;;1999.90;999.90;;;;;;;14.05;62.33;100434.78;10415814;28;20041;-66
2023/12/10 10:18:14;;;;;;;1999.90;999.90;;;;;;;13.83;62.48;100461.09;10415585;28;20567;-66
2023/12/10 10:23:17;;;;;;;1999.90;999.90;;;;;;;14.08;61.99;100449.50;10415282;28;20401;-66
2023/12/10 10:28:20;;;;;;;1999.90;999.90;;;;;;;14.10;62.48;100442.31;10415579;28;20049;-67
2023/12/10 10:33:25;;;;;;;1999.90;999.90;;;;;;;14.31;62.50;100456.44;10415260;28;20053;-66
2023/12/10 10:38:29;;;;;;;1999.90;999.90;;;;;;;14.36;60.60;100442.94;10413897;28;20049;-67
2023/12/10 10:43:31;;;;;;;1999.90;999.90;;;;;;;14.44;60.63;100437.91;10413832;28;20484;-66
2023/12/10 10:48:35;;;;;;;1999.90;999.90;;;;;;;14.54;62.12;100429.25;10415036;28;20124;-67
2023/12/10 10:53:38;;;;;;;1999.90;999.90;;;;;;;14.23;62.61;100436.94;10414831;28;20451;-66
2023/12/10 10:58:41;;;;;;;1999.90;999.90;;;;;;;14.65;61.47;100440.63;10417105;28;20053;-66
2023/12/10 11:03:43;;;;;;;1999.90;999.90;;;;;;;14.80;61.34;100433.28;10421764;28;20049;-67
2023/12/10 11:08:59;;;;;;;1999.90;999.90;;;;;;;14.51;62.03;100448.78;10422697;28;20107;-66
2023/12/10 11:14:02;;;;;;;1999.90;999.90;;;;;;;14.06;62.07;100427.75;10422873;28;20153;-64
2023/12/10 11:19:04;;;;;;;1999.90;999.90;;;;;;;14.61;61.29;100443.66;10422477;28;20133;-66
2023/12/10 11:24:07;;;;;;;1999.90;999.90;;;;;;;14.35;62.25;100427.25;10421993;28;20045;-66
2023/12/10 11:29:09;;;;;;;1999.90;999.90;;;;;;;14.82;60.67;100420.81;10420898;28;20053;-67
2023/12/10 11:34:12;;;;;;;1999.90;999.90;;;;;;;15.51;59.98;100421.34;10420442;28;20049;-66
2023/12/10 11:39:15;;;;;;;1999.90;999.90;;;;;;;15.37;59.24;100433.91;10404266;28;20060;-66
2023/12/10 11:44:17;;;;;;;1999.90;999.90;;;;;;;15.31;59.35;100441.47;10421184;28;20049;-66
2023/12/10 11:49:20;;;;;;;1999.90;999.90;;;;;;;15.83;57.02;100433.66;10421221;28;20051;-66
2023/12/10 11:54:22;;;;;;;1999.90;999.90;;;;;;;15.81;56.98;100425.88;10420960;28;20050;-66
2023/12/10 11:59:25;;;;;;;1999.90;999.90;;;;;;;15.79;59.31;100425.16;10420709;28;20412;-66
2023/12/10 12:04:28;;;;;;;1999.90;999.90;;;;;;;15.89;58.47;100426.06;10420707;28;20046;-66
2023/12/10 12:09:30;;;;;;;1999.90;999.90;;;;;;;16.10;56.59;100422.53;10418320;28;20049;-66
2023/12/10 12:14:33;;;;;;;1999.90;999.90;;;;;;;16.88;56.96;100412.19;10420588;28;20050;-67
2023/12/10 12:19:36;;;;;;;1999.90;999.90;;;;;;;16.28;57.76;100414.81;10419087;28;20054;-67
2023/12/10 12:24:39;;;;;;;1999.90;999.90;;;;;;;16.28;56.38;100410.34;10419775;28;20042;-67
2023/12/10 12:29:41;;;;;;;1999.90;999.90;;;;;;;15.70;57.87;100405.66;10402548;28;20057;-67
2023/12/10 12:34:44;;;;;;;1999.90;999.90;;;;;;;16.49;57.49;100409.41;10419429;28;20469;-67
2023/12/10 12:39:46;;;;;;;1999.90;999.90;;;;;;;15.78;57.31;100419.06;10419533;28;20064;-66
2023/12/10 12:44:49;;;;;;;1999.90;999.90;;;;;;;15.87;59.19;100401.59;10419252;28;20045;-67
2023/12/10 12:49:52;;;;;;;1999.90;999.90;;;;;;;15.55;60.05;100376.13;10418904;28;20499;-66
2023/12/10 12:54:54;;;;;;;1999.90;999.90;;;;;;;16.63;57.05;100400.28;10418980;28;20061;-66
2023/12/10 12:59:57;;;;;;;1999.90;999.90;;;;;;;16.36;57.66;100362.13;10417328;28;20404;-66
2023/12/10 13:04:59;;;;;;;1999.90;999.90;;;;;;;15.24;60.65;100377.88;10417299;28;20083;-67
2023/12/10 13:10:02;;;;;;;1999.90;999.90;;;;;;;15.91;59.17;100373.94;10416863;28;20057;-67
2023/12/10 13:15:06;;;;;;;1999.90;999.90;;;;;;;16.97;57.25;100373.47;10418154;28;20048;-66
2023/12/10 13:20:09;;;;;;;1999.90;999.90;;;;;;;16.22;58.92;100373.91;10417485;28;20089;-67
2023/12/10 13:25:12;;;;;;;1999.90;999.90;;;;;;;16.49;59.09;100352.16;10417661;28;20041;-66
2023/12/10 13:30:14;;;;;;;1999.90;999.90;;;;;;;15.74;59.99;100364.81;10417440;28;20055;-67
2023/12/10 13:35:17;;;;;;;1999.90;999.90;;;;;;;16.46;58.80;100367.44;10416999;28;20050;-66
2023/12/10 13:40:21;;;;;;;1999.90;999.90;;;;;;;16.09;59.82;100374.16;10417131;28;20132;-66
2023/12/10 13:45:23;;;;;;;1999.90;999.90;;;;;;;15.30;62.04;100374.72;10416704;28;20049;-66
2023/12/10 13:50:26;;;;;;;1999.90;999.90;;;;;;;16.23;60.13;100374.75;10399263;28;20072;-66
2023/12/10 13:55:28;;;;;;;1999.90;999.90;;;;;;;16.40;60.75;100360.06;10416548;28;20041;-67
2023/12/10 14:00:31;;;;;;;1999.90;999.90;;;;;;;16.39;60.23;100367.16;10416100;28;20053;-68
2023/12/10 14:05:33;;;;;;;1999.90;999.90;;;;;;;16.21;61.87;100350.28;10416261;28;20046;-67
2023/12/10 14:10:36;;;;;;;1999.90;999.90;;;;;;;16.23;62.07;100335.97;10415761;28;20104;-66
2023/12/10 14:15:38;;;;;;;1999.90;999.90;;;;;;;15.17;64.57;100322.16;10415765;28;20077;-68
2023/12/10 14:20:42;;;;;;;1999.90;999.90;;;;;;;15.33;64.83;100305.91;10415532;28;20096;-66
2023/12/10 14:25:44;;;;;;;1999.90;999.90;;;;;;;15.82;63.96;100287.66;10414189;28;20049;-67
2023/12/10 14:30:47;;;;;;;1999.90;999.90;;;;;;;15.27;65.92;100271.28;10415591;28;20128;-67
2023/12/10 14:35:49;;;;;;;1999.90;999.90;;;;;;;15.80;65.00;100260.53;10414691;28;20049;-67
2023/12/10 14:40:52;;;;;;;1999.90;999.90;;;;;;;16.30;63.56;100235.88;10414163;28;20045;-67
2023/12/10 14:45:54;;;;;;;1999.90;999.90;;;;;;;15.30;65.54;100255.19;10397632;28;20045;-66
2023/12/10 14:50:56;;;;;;;1999.90;999.90;;;;;;;15.36;66.60;100252.03;10414871;28;20412;-66
2023/12/10 14:55:59;;;;;;;1999.90;999.90;;;;;;;15.92;65.00;100253.34;10414824;28;20052;-67
2023/12/10 15:01:03;;;;;;;1999.90;999.90;;;;;;;15.40;66.00;100250.81;10413623;28;20104;-66
2023/12/10 15:06:06;;;;;;;1999.90;999.90;;;;;;;15.57;65.01;100225.59;10415000;28;20054;-66
2023/12/10 15:11:08;;;;;;;1999.90;999.90;;;;;;;15.88;64.18;100212.34;10413448;28;20136;-66
2023/12/10 15:16:10;;;;;;;1999.90;999.90;;;;;;;15.59;65.38;100215.75;10413236;28;20481;-67
2023/12/10 15:21:13;;;;;;;1999.90;999.90;;;;;;;15.67;64.70;100220.31;10414471;28;20503;-66
2023/12/10 15:26:17;;;;;;;1999.90;999.90;;;;;;;15.18;65.46;100197.28;10414329;28;20061;-67
2023/12/10 15:31:21;;;;;;;1999.90;999.90;;;;;;;15.65;65.07;100182.69;10414164;28;20045;-66
2023/12/10 15:36:23;;;;;;;1999.90;999.90;;;;;;;15.40;66.38;100164.59;10414011;28;20041;-66
2023/12/10 15:41:28;;;;;;;1999.90;999.90;;;;;;;15.08;66.78;100130.50;10414183;28;20111;-66
2023/12/10 15:46:30;;;;;;;1999.90;999.90;;;;;;;14.86;66.63;100128.84;10419629;28;20045;-66
2023/12/10 15:51:32;;;;;;;1999.90;999.90;;;;;;;15.02;66.54;100129.22;10421470;28;20057;-67
2023/12/10 15:56:35;;;;;;;1999.90;999.90;;;;;;;14.98;66.04;100116.44;10421112;28;20053;-66
2023/12/10 16:01:38;;;;;;;1999.90;999.90;;;;;;;15.45;65.25;100100.03;10420836;28;20099;-66
2023/12/10 16:06:41;;;;;;;1999.90;999.90;;;;;;;14.88;66.17;100100.59;10420549;28;20053;-66
2023/12/10 16:11:44;;;;;;;1999.90;999.90;;;;;;;15.02;66.86;100084.41;10419306;28;20057;-66
2023/12/10 16:16:46;;;;;;;1999.90;999.90;;;;;;;14.67;67.38;100056.66;10420472;28;20054;-66
2023/12/10 16:21:48;;;;;;;1999.90;999.90;;;;;;;14.82;67.59;100027.31;10419038;28;20049;-66
2023/12/10 16:26:51;;;;;;;1999.90;999.90;;;;;;;15.12;66.05;100004.50;10420022;28;20050;-66
2023/12/10 16:31:53;;;;;;;1999.90;999.90;;;;;;;14.35;67.18;100000.66;10418721;28;20053;-66
2023/12/10 16:36:55;;;;;;;1999.90;999.90;;;;;;;14.52;65.71;99971.03;10418394;28;20136;-66
2023/12/10 16:41:58;;;;;;;1999.90;999.90;;;;;;;14.12;67.35;99961.31;10419338;28;20389;-67
2023/12/10 16:47:00;;;;;;;1999.90;999.90;;;;;;;14.88;66.11;99950.38;10418018;28;20053;-66
2023/12/10 16:52:03;;;;;;;1999.90;999.90;;;;;;;14.18;67.28;99944.19;10417997;28;20049;-66
2023/12/10 16:57:05;;;;;;;1999.90;999.90;;;;;;;14.20;68.48;99923.81;10417122;28;20128;-66
2023/12/10 17:02:08;;;;;;;1999.90;999.90;;;;;;;14.71;68.19;99904.44;10418396;28;20128;-66
2023/12/10 17:07:10;;;;;;;1999.90;999.90;;;;;;;14.11;72.00;99885.97;10417986;28;20404;-65
2023/12/10 17:12:13;;;;;;;1999.90;999.90;;;;;;;14.39;70.76;99868.59;10400584;28;20053;-65
2023/12/10 17:17:15;;;;;;;1999.90;999.90;;;;;;;14.52;71.39;99859.59;10418113;28;20046;-65
2023/12/10 17:22:18;;;;;;;1999.90;999.90;;;;;;;14.18;73.45;99852.88;10430228;22;20057;-64
2023/12/10 17:27:22;;;;;;;1999.90;999.90;;;;;;;14.53;72.57;99825.22;10416591;28;20079;-65
2023/12/10 17:32:25;;;;;;;1999.90;999.90;;;;;;;13.39;75.78;99819.31;10417560;28;20127;-65
2023/12/10 17:37:27;;;;;;;1999.90;999.90;;;;;;;13.92;72.34;99787.56;10417102;28;20052;-64
2023/12/10 17:42:30;;;;;;;1999.90;999.90;;;;;;;13.44;75.73;99761.09;10417061;28;20081;-64
2023/12/10 17:47:32;;;;;;;1999.90;999.90;;;;;;;14.05;73.35;99760.16;10416706;28;20052;-64
2023/12/10 17:52:35;;;;;;;1999.90;999.90;;;;;;;13.57;76.38;99730.13;10416913;28;20092;-64
2023/12/10 17:57:37;;;;;;;1999.90;999.90;;;;;;;13.50;77.06;99740.34;10415242;28;20373;-64
2023/12/10 18:02:40;;;;;;;1999.90;999.90;;;;;;;13.25;80.08;99706.59;10416170;28;20503;-64
2023/12/10 18:07:42;;;;;;;1999.90;999.90;;;;;;;13.41;79.97;99682.47;10415266;28;20488;-64
2023/12/10 18:12:44;;;;;;;1999.90;999.90;;;;;;;13.00;81.59;99671.91;10415910;28;20057;-63
2023/12/10 18:17:47;;;;;;;1999.90;999.90;;;;;;;13.32;80.62;99674.41;10415741;28;20447;-63
2023/12/10 18:22:50;;;;;;;1999.90;999.90;;;;;;;13.48;80.06;99668.66;10415422;28;20068;-63
2023/12/10 18:27:52;;;;;;;1999.90;999.90;;;;;;;13.53;78.45;99658.56;10415375;28;20381;-63
2023/12/10 18:32:55;;;;;;;1999.90;999.90;;;;;;;13.18;82.54;99636.16;10415487;28;20080;-63
2023/12/10 18:37:57;;;;;;;1999.90;999.90;;;;;;;13.54;81.26;99638.34;10414107;28;20073;-64
2023/12/10 18:43:04;;;;;;;1999.90;999.90;;;;;;;13.31;83.53;99633.28;10414034;28;20045;-64
2023/12/10 18:48:07;;;;;;;1999.90;999.90;;;;;;;13.31;81.85;99616.69;10413863;28;20081;-64
2023/12/10 18:53:09;;;;;;;1999.90;999.90;;;;;;;13.96;80.59;99606.56;10414919;28;20448;-64
2023/12/10 18:58:12;;;;;;;1999.90;999.90;;;;;;;13.89;81.89;99610.72;10413743;28;20049;-64
2023/12/10 19:03:14;;;;;;;1999.90;999.90;;;;;;;13.93;82.28;99609.47;10414797;28;20053;-64
2023/12/10 19:08:17;;;;;;;1999.90;999.90;;;;;;;13.73;83.09;99616.50;10414623;28;20518;-64
2023/12/10 19:13:19;;;;;;;1999.90;999.90;;;;;;;14.00;83.02;99597.41;10414424;28;20057;-63
2023/12/10 19:18:23;;;;;;;1999.90;999.90;;;;;;;14.78;80.97;99593.81;10415891;28;20045;-63
2023/12/10 19:23:25;;;;;;;1999.90;999.90;;;;;;;14.08;83.28;99589.63;10422274;28;20053;-64
2023/12/10 19:28:28;;;;;;;1999.90;999.90;;;;;;;14.66;80.58;99595.81;10422167;28;20373;-64
2023/12/10 19:33:30;;;;;;;1999.90;999.90;;;;;;;14.33;82.52;99592.66;10422101;28;20049;-64
2023/12/10 19:38:32;;;;;;;1999.90;999.90;;;;;;;14.98;80.16;99590.13;10421899;28;20088;-64
2023/12/10 19:43:35;;;;;;;1999.90;999.90;;;;;;;14.53;83.09;99595.25;10421603;28;20511;-65
2023/12/10 19:48:37;;;;;;;1999.90;999.90;;;;;;;15.14;78.85;99573.66;10421358;28;20087;-64
2023/12/10 19:53:40;;;;;;;1999.90;999.90;;;;;;;14.90;82.94;99592.66;10420331;28;20050;-65
2023/12/10 19:58:42;;;;;;;1999.90;999.90;;;;;;;14.99;82.27;99604.94;10421132;28;20073;-65
2023/12/10 20:03:47;;;;;;;1999.90;999.90;;;;;;;15.62;76.72;99606.00;10419657;28;20564;-65
2023/12/10 20:08:49;;;;;;;1999.90;999.90;;;;;;;15.59;79.11;99607.13;10420735;28;20049;-64
2023/12/10 20:13:52;;;;;;;1999.90;999.90;;;;;;;15.85;78.06;99610.84;10420409;28;20107;-64
2023/12/10 20:18:54;;;;;;;1999.90;999.90;;;;;;;15.01;82.42;99610.94;10420411;28;20045;-64
2023/12/10 20:23:57;;;;;;;1999.90;999.90;;;;;;;15.11;79.87;99612.66;10418829;28;20053;-64
2023/12/10 20:28:59;;;;;;;1999.90;999.90;;;;;;;15.63;79.07;99615.56;10419684;28;20398;-65
2023/12/10 20:34:02;;;;;;;1999.90;999.90;;;;;;;15.38;80.75;99630.28;10417733;28;20049;-65
2023/12/10 20:39:06;;;;;;;1999.90;999.90;;;;;;;15.13;81.48;99623.88;10419550;28;20481;-64
2023/12/10 20:44:08;;;;;;;1999.90;999.90;;;;;;;15.76;78.07;99646.88;10419472;28;20083;-64
2023/12/10 20:49:11;;;;;;;1999.90;999.90;;;;;;;15.43;79.49;99657.03;10419055;28;20055;-65
2023/12/10 20:54:14;;;;;;;1999.90;999.90;;;;;;;15.40;79.16;99660.81;10417924;28;20107;-65
2023/12/10 20:59:16;;;;;;;1999.90;999.90;;;;;;;15.24;78.77;99663.25;10418742;28;20120;-65
2023/12/10 21:04:19;;;;;;;1999.90;999.90;;;;;;;15.34;78.33;99665.84;10418771;28;20128;-64
2023/12/10 21:09:21;;;;;;;1999.90;999.90;;;;;;;15.74;75.88;99680.50;10418349;28;20042;-64
2023/12/10 21:14:24;;;;;;;1999.90;999.90;;;;;;;15.27;80.22;99668.25;10417030;28;20041;-65
2023/12/10 21:19:27;;;;;;;1999.90;999.90;;;;;;;15.13;79.05;99677.47;10418164;28;20056;-64
2023/12/10 21:24:30;;;;;;;1999.90;999.90;;;;;;;15.09;78.01;99678.72;10416405;28;20057;-65
2023/12/10 21:29:32;;;;;;;1999.90;999.90;;;;;;;15.12;76.38;99681.06;10417793;28;20061;-65
2023/12/10 21:34:35;;;;;;;1999.90;999.90;;;;;;;14.83;77.77;99686.44;10416210;28;20096;-65
2023/12/10 21:39:37;;;;;;;1999.90;999.90;;;;;;;14.88;78.07;99700.03;10417117;28;20052;-64
2023/12/10 21:44:39;;;;;;;1999.90;999.90;;;;;;;14.77;77.83;99706.25;10416865;28;20108;-64
2023/12/10 21:49:42;;;;;;;1999.90;999.90;;;;;;;14.76;79.36;99702.00;10416688;28;20480;-64
2023/12/10 21:54:45;;;;;;;1999.90;999.90;;;;;;;14.93;76.38;99716.22;10416769;28;20107;-65
2023/12/10 21:59:51;;;;;;;1999.90;999.90;;;;;;;14.85;75.06;99731.91;10416502;28;20481;-65